sensor_id;sensor_type;location;lat;lon;timestamp;P1;P2;P0
73828;PMS7003;62176;48.450;-4.466;2022-08-20T00:00:53;6.00;6.00;4.75
73828;PMS7003;62176;48.450;-4.466;2022-08-20T00:05:58;6.25;5.50;4.00
73828;PMS7003;62176;48.450;-4.466;2022-08-20T00:08:27;5.50;5.50;3.50
73828;PMS7003;62176;48.450;-4.466;2022-08-20T00:10:53;5.50;4.50;4.00
73828;PMS7003;62176;48.450;-4.466;2022-08-20T00:13:24;6.50;6.00;4.00
73828;PMS7003;62176;48.450;-4.466;2022-08-20T00:15:52;9.50;5.50;4.50
73828;PMS7003;62176;48.450;-4.466;2022-08-20T00:18:18;8.00;6.00;4.00
73828;PMS7003;62176;48.450;-4.466;2022-08-20T00:20:46;7.50;5.75;5.00
73828;PMS7003;62176;48.450;-4.466;2022-08-20T00:23:13;7.50;5.75;4.00
73828;PMS7003;62176;48.450;-4.466;2022-08-20T00:25:40;8.50;6.50;4.75
73828;PMS7003;62176;48.450;-4.466;2022-08-20T00:28:06;4.75;4.50;3.75
73828;PMS7003;62176;48.450;-4.466;2022-08-20T00:30:33;5.25;5.00;3.50
73828;PMS7003;62176;48.450;-4.466;2022-08-20T00:33:02;4.00;4.00;3.00
73828;PMS7003;62176;48.450;-4.466;2022-08-20T00:35:31;6.50;5.50;4.00
73828;PMS7003;62176;48.450;-4.466;2022-08-20T00:37:58;4.25;4.25;3.00
73828;PMS7003;62176;48.450;-4.466;2022-08-20T00:40:25;5.25;4.00;3.00
73828;PMS7003;62176;48.450;-4.466;2022-08-20T00:43:00;6.00;4.00;3.00
73828;PMS7003;62176;48.450;-4.466;2022-08-20T00:45:29;2.75;2.75;2.00
73828;PMS7003;62176;48.450;-4.466;2022-08-20T00:47:56;5.00;5.00;3.25
73828;PMS7003;62176;48.450;-4.466;2022-08-20T00:50:23;5.00;3.25;3.25
73828;PMS7003;62176;48.450;-4.466;2022-08-20T00:52:53;4.00;4.00;3.00
73828;PMS7003;62176;48.450;-4.466;2022-08-20T00:55:20;6.50;5.25;3.25
73828;PMS7003;62176;48.450;-4.466;2022-08-20T00:57:52;3.00;3.00;3.00
73828;PMS7003;62176;48.450;-4.466;2022-08-20T01:00:28;5.75;3.00;2.00
73828;PMS7003;62176;48.450;-4.466;2022-08-20T01:02:57;2.00;1.00;1.00
73828;PMS7003;62176;48.450;-4.466;2022-08-20T01:05:24;4.75;4.75;4.00
73828;PMS7003;62176;48.450;-4.466;2022-08-20T01:07:50;4.75;3.75;2.00
73828;PMS7003;62176;48.450;-4.466;2022-08-20T01:10:22;3.50;3.00;3.00
73828;PMS7003;62176;48.450;-4.466;2022-08-20T01:12:51;3.25;3.00;2.50
73828;PMS7003;62176;48.450;-4.466;2022-08-20T01:15:20;4.25;4.00;4.00
73828;PMS7003;62176;48.450;-4.466;2022-08-20T01:17:49;5.25;4.00;3.50
73828;PMS7003;62176;48.450;-4.466;2022-08-20T01:20:22;6.75;6.00;4.75
73828;PMS7003;62176;48.450;-4.466;2022-08-20T01:28:48;6.25;6.00;5.00
73828;PMS7003;62176;48.450;-4.466;2022-08-20T01:31:18;8.00;7.25;5.00
73828;PMS7003;62176;48.450;-4.466;2022-08-20T01:33:48;8.00;7.00;6.25
73828;PMS7003;62176;48.450;-4.466;2022-08-20T01:36:16;4.00;4.00;3.50
73828;PMS7003;62176;48.450;-4.466;2022-08-20T01:38:43;5.00;5.00;5.00
73828;PMS7003;62176;48.450;-4.466;2022-08-20T01:41:20;5.00;4.75;4.75
73828;PMS7003;62176;48.450;-4.466;2022-08-20T01:43:48;7.00;6.25;5.00
73828;PMS7003;62176;48.450;-4.466;2022-08-20T01:46:16;8.50;7.00;6.00
73828;PMS7003;62176;48.450;-4.466;2022-08-20T01:48:42;6.00;6.00;4.25
73828;PMS7003;62176;48.450;-4.466;2022-08-20T01:51:17;6.75;5.00;5.00
73828;PMS7003;62176;48.450;-4.466;2022-08-20T01:53:46;6.25;5.25;4.00
73828;PMS7003;62176;48.450;-4.466;2022-08-20T01:56:17;5.75;5.75;4.00
73828;PMS7003;62176;48.450;-4.466;2022-08-20T01:58:46;4.50;4.50;4.00
73828;PMS7003;62176;48.450;-4.466;2022-08-20T02:01:34;8.00;7.00;5.00
73828;PMS7003;62176;48.450;-4.466;2022-08-20T02:04:04;8.00;4.25;3.75
73828;PMS7003;62176;48.450;-4.466;2022-08-20T02:06:32;4.00;4.00;3.00
73828;PMS7003;62176;48.450;-4.466;2022-08-20T02:09:02;6.75;4.50;3.75
73828;PMS7003;62176;48.450;-4.466;2022-08-20T02:11:29;7.00;5.00;4.00
73828;PMS7003;62176;48.450;-4.466;2022-08-20T02:13:56;5.00;5.00;4.00
73828;PMS7003;62176;48.450;-4.466;2022-08-20T02:16:22;4.50;4.50;3.00
73828;PMS7003;62176;48.450;-4.466;2022-08-20T02:18:59;4.25;4.25;4.00
73828;PMS7003;62176;48.450;-4.466;2022-08-20T02:21:27;4.25;3.00;2.50
73828;PMS7003;62176;48.450;-4.466;2022-08-20T02:23:58;4.00;4.00;2.75
73828;PMS7003;62176;48.450;-4.466;2022-08-20T02:26:24;4.00;4.00;3.00
73828;PMS7003;62176;48.450;-4.466;2022-08-20T02:28:51;5.50;3.50;3.00
73828;PMS7003;62176;48.450;-4.466;2022-08-20T02:31:19;3.00;3.00;2.50
73828;PMS7003;62176;48.450;-4.466;2022-08-20T02:33:46;4.50;2.50;2.00
73828;PMS7003;62176;48.450;-4.466;2022-08-20T02:36:12;5.25;4.00;3.00
73828;PMS7003;62176;48.450;-4.466;2022-08-20T02:38:39;3.25;3.25;3.00
73828;PMS7003;62176;48.450;-4.466;2022-08-20T02:41:06;3.75;3.75;3.00
73828;PMS7003;62176;48.450;-4.466;2022-08-20T02:43:32;2.00;2.00;2.00
73828;PMS7003;62176;48.450;-4.466;2022-08-20T02:45:59;5.50;4.00;3.00
73828;PMS7003;62176;48.450;-4.466;2022-08-20T02:48:26;4.50;3.50;3.00
73828;PMS7003;62176;48.450;-4.466;2022-08-20T02:50:53;3.00;2.25;2.00
73828;PMS7003;62176;48.450;-4.466;2022-08-20T02:53:25;3.25;3.00;2.25
73828;PMS7003;62176;48.450;-4.466;2022-08-20T02:55:51;2.00;2.00;1.75
73828;PMS7003;62176;48.450;-4.466;2022-08-20T02:58:17;5.00;4.75;2.75
73828;PMS7003;62176;48.450;-4.466;2022-08-20T03:00:43;3.50;3.50;2.25
73828;PMS7003;62176;48.450;-4.466;2022-08-20T03:03:09;2.75;2.75;2.00
73828;PMS7003;62176;48.450;-4.466;2022-08-20T03:05:36;2.75;2.75;2.00
73828;PMS7003;62176;48.450;-4.466;2022-08-20T03:08:04;3.75;3.75;2.75
73828;PMS7003;62176;48.450;-4.466;2022-08-20T03:10:31;3.50;1.75;1.50
73828;PMS7003;62176;48.450;-4.466;2022-08-20T03:12:58;3.75;2.50;2.00
73828;PMS7003;62176;48.450;-4.466;2022-08-20T03:15:26;2.50;2.25;2.00
73828;PMS7003;62176;48.450;-4.466;2022-08-20T03:17:53;3.00;3.00;3.00
73828;PMS7003;62176;48.450;-4.466;2022-08-20T03:20:19;2.25;2.25;1.75
73828;PMS7003;62176;48.450;-4.466;2022-08-20T03:22:45;3.00;3.00;2.00
73828;PMS7003;62176;48.450;-4.466;2022-08-20T03:25:13;2.75;2.75;2.25
73828;PMS7003;62176;48.450;-4.466;2022-08-20T03:27:39;6.00;4.00;3.00
73828;PMS7003;62176;48.450;-4.466;2022-08-20T03:30:06;3.00;3.00;2.00
73828;PMS7003;62176;48.450;-4.466;2022-08-20T03:32:35;4.50;3.75;3.00
73828;PMS7003;62176;48.450;-4.466;2022-08-20T03:35:02;4.00;3.00;2.75
73828;PMS7003;62176;48.450;-4.466;2022-08-20T03:37:32;3.25;3.25;2.00
73828;PMS7003;62176;48.450;-4.466;2022-08-20T03:39:59;3.50;3.00;2.00
73828;PMS7003;62176;48.450;-4.466;2022-08-20T03:42:25;3.75;2.25;1.75
73828;PMS7003;62176;48.450;-4.466;2022-08-20T03:44:51;5.25;2.75;2.00
73828;PMS7003;62176;48.450;-4.466;2022-08-20T03:47:17;2.75;2.75;2.00
73828;PMS7003;62176;48.450;-4.466;2022-08-20T03:49:43;4.00;2.25;1.00
73828;PMS7003;62176;48.450;-4.466;2022-08-20T03:52:08;2.75;2.75;1.50
73828;PMS7003;62176;48.450;-4.466;2022-08-20T03:54:33;3.25;2.00;2.00
73828;PMS7003;62176;48.450;-4.466;2022-08-20T03:56:59;4.00;2.75;2.00
73828;PMS7003;62176;48.450;-4.466;2022-08-20T03:59:26;3.00;3.00;2.00
73828;PMS7003;62176;48.450;-4.466;2022-08-20T04:01:52;4.00;2.75;2.00
73828;PMS7003;62176;48.450;-4.466;2022-08-20T04:04:18;9.75;5.25;3.25
73828;PMS7003;62176;48.450;-4.466;2022-08-20T04:06:44;9.50;7.00;4.00
73828;PMS7003;62176;48.450;-4.466;2022-08-20T04:09:11;7.00;6.00;4.00
73828;PMS7003;62176;48.450;-4.466;2022-08-20T04:11:38;4.75;4.75;3.00
73828;PMS7003;62176;48.450;-4.466;2022-08-20T04:14:04;8.00;5.00;3.75
73828;PMS7003;62176;48.450;-4.466;2022-08-20T04:16:29;6.00;6.00;5.00
73828;PMS7003;62176;48.450;-4.466;2022-08-20T04:18:57;5.75;5.00;4.25
73828;PMS7003;62176;48.450;-4.466;2022-08-20T04:21:22;4.50;4.00;3.00
73828;PMS7003;62176;48.450;-4.466;2022-08-20T04:23:48;4.00;4.00;3.00
73828;PMS7003;62176;48.450;-4.466;2022-08-20T04:26:13;5.25;3.25;2.50
73828;PMS7003;62176;48.450;-4.466;2022-08-20T04:28:40;4.50;3.00;2.25
73828;PMS7003;62176;48.450;-4.466;2022-08-20T04:31:05;4.75;4.50;3.25
73828;PMS7003;62176;48.450;-4.466;2022-08-20T04:33:31;6.50;5.25;4.75
73828;PMS7003;62176;48.450;-4.466;2022-08-20T04:35:57;6.25;4.50;3.50
73828;PMS7003;62176;48.450;-4.466;2022-08-20T04:38:27;7.50;6.00;3.75
73828;PMS7003;62176;48.450;-4.466;2022-08-20T04:40:53;6.75;5.25;3.00
73828;PMS7003;62176;48.450;-4.466;2022-08-20T04:45:51;4.00;4.00;2.00
73828;PMS7003;62176;48.450;-4.466;2022-08-20T04:48:18;5.75;4.00;2.75
73828;PMS7003;62176;48.450;-4.466;2022-08-20T04:50:44;7.50;5.75;3.25
73828;PMS7003;62176;48.450;-4.466;2022-08-20T04:53:14;5.00;5.00;4.00
73828;PMS7003;62176;48.450;-4.466;2022-08-20T04:55:42;5.00;5.00;4.00
73828;PMS7003;62176;48.450;-4.466;2022-08-20T04:58:09;5.50;5.00;4.00
73828;PMS7003;62176;48.450;-4.466;2022-08-20T05:00:38;7.50;6.50;5.00
73828;PMS7003;62176;48.450;-4.466;2022-08-20T05:03:04;6.75;5.25;4.00
73828;PMS7003;62176;48.450;-4.466;2022-08-20T05:05:33;6.25;6.25;5.00
73828;PMS7003;62176;48.450;-4.466;2022-08-20T05:07:59;8.75;5.25;3.00
73828;PMS7003;62176;48.450;-4.466;2022-08-20T05:10:26;5.00;5.00;4.00
73828;PMS7003;62176;48.450;-4.466;2022-08-20T05:12:53;5.00;5.00;4.00
73828;PMS7003;62176;48.450;-4.466;2022-08-20T05:15:18;8.75;4.75;3.75
73828;PMS7003;62176;48.450;-4.466;2022-08-20T05:17:44;5.25;3.00;2.00
73828;PMS7003;62176;48.450;-4.466;2022-08-20T05:20:11;4.00;4.00;2.75
73828;PMS7003;62176;48.450;-4.466;2022-08-20T05:22:41;3.50;3.50;3.00
73828;PMS7003;62176;48.450;-4.466;2022-08-20T05:25:06;8.75;4.00;3.00
73828;PMS7003;62176;48.450;-4.466;2022-08-20T05:27:32;3.00;3.00;3.00
73828;PMS7003;62176;48.450;-4.466;2022-08-20T05:30:02;5.75;5.00;3.50
73828;PMS7003;62176;48.450;-4.466;2022-08-20T05:32:34;4.75;4.25;3.00
73828;PMS7003;62176;48.450;-4.466;2022-08-20T05:35:01;4.00;3.75;3.00
73828;PMS7003;62176;48.450;-4.466;2022-08-20T05:37:27;3.75;3.75;3.00
73828;PMS7003;62176;48.450;-4.466;2022-08-20T05:39:54;3.50;3.50;2.75
73828;PMS7003;62176;48.450;-4.466;2022-08-20T05:42:19;6.75;5.25;3.25
73828;PMS7003;62176;48.450;-4.466;2022-08-20T05:44:45;4.00;4.00;3.00
73828;PMS7003;62176;48.450;-4.466;2022-08-20T05:47:10;3.25;3.25;2.25
73828;PMS7003;62176;48.450;-4.466;2022-08-20T05:49:37;6.25;5.00;4.00
73828;PMS7003;62176;48.450;-4.466;2022-08-20T05:52:02;4.00;4.00;3.50
73828;PMS7003;62176;48.450;-4.466;2022-08-20T05:54:29;6.50;4.00;3.00
73828;PMS7003;62176;48.450;-4.466;2022-08-20T05:56:55;2.00;2.00;1.00
73828;PMS7003;62176;48.450;-4.466;2022-08-20T05:59:21;5.25;4.00;3.00
73828;PMS7003;62176;48.450;-4.466;2022-08-20T06:01:48;5.25;4.75;3.00
73828;PMS7003;62176;48.450;-4.466;2022-08-20T06:04:13;7.00;7.00;3.75
73828;PMS7003;62176;48.450;-4.466;2022-08-20T06:06:48;7.00;4.25;3.25
73828;PMS7003;62176;48.450;-4.466;2022-08-20T06:09:25;5.25;4.75;3.25
73828;PMS7003;62176;48.450;-4.466;2022-08-20T06:11:51;10.25;5.75;4.00
73828;PMS7003;62176;48.450;-4.466;2022-08-20T06:14:17;5.00;4.75;3.75
73828;PMS7003;62176;48.450;-4.466;2022-08-20T06:16:44;6.00;6.00;4.50
73828;PMS7003;62176;48.450;-4.466;2022-08-20T06:19:10;5.00;5.00;4.00
73828;PMS7003;62176;48.450;-4.466;2022-08-20T06:21:36;6.00;6.00;4.75
73828;PMS7003;62176;48.450;-4.466;2022-08-20T06:24:01;11.00;7.50;5.50
73828;PMS7003;62176;48.450;-4.466;2022-08-20T06:26:27;6.50;5.00;4.00
73828;PMS7003;62176;48.450;-4.466;2022-08-20T06:28:53;6.25;4.50;3.25
73828;PMS7003;62176;48.450;-4.466;2022-08-20T06:31:18;7.50;6.25;4.00
73828;PMS7003;62176;48.450;-4.466;2022-08-20T06:33:45;5.00;5.00;3.25
73828;PMS7003;62176;48.450;-4.466;2022-08-20T06:36:11;7.50;5.50;4.75
73828;PMS7003;62176;48.450;-4.466;2022-08-20T06:38:36;7.00;5.00;4.00
73828;PMS7003;62176;48.450;-4.466;2022-08-20T06:41:02;5.00;5.00;4.00
73828;PMS7003;62176;48.450;-4.466;2022-08-20T06:43:27;7.75;5.00;3.75
73828;PMS7003;62176;48.450;-4.466;2022-08-20T06:45:53;5.00;5.00;4.00
73828;PMS7003;62176;48.450;-4.466;2022-08-20T06:48:21;6.25;5.00;3.00
73828;PMS7003;62176;48.450;-4.466;2022-08-20T06:50:48;7.00;4.00;4.00
73828;PMS7003;62176;48.450;-4.466;2022-08-20T06:53:15;3.75;3.75;3.25
73828;PMS7003;62176;48.450;-4.466;2022-08-20T06:55:43;6.50;5.75;4.00
73828;PMS7003;62176;48.450;-4.466;2022-08-20T06:58:12;7.75;5.00;4.00
73828;PMS7003;62176;48.450;-4.466;2022-08-20T07:00:38;6.00;5.25;3.75
73828;PMS7003;62176;48.450;-4.466;2022-08-20T07:03:06;5.75;5.00;4.00
73828;PMS7003;62176;48.450;-4.466;2022-08-20T07:05:33;3.75;3.50;3.00
73828;PMS7003;62176;48.450;-4.466;2022-08-20T07:08:00;6.00;6.00;4.50
73828;PMS7003;62176;48.450;-4.466;2022-08-20T07:10:27;7.00;6.50;5.00
73828;PMS7003;62176;48.450;-4.466;2022-08-20T07:12:54;6.50;5.75;4.25
73828;PMS7003;62176;48.450;-4.466;2022-08-20T07:15:20;8.00;8.00;6.00
73828;PMS7003;62176;48.450;-4.466;2022-08-20T07:17:48;8.25;6.50;4.75
73828;PMS7003;62176;48.450;-4.466;2022-08-20T07:20:16;7.25;5.00;4.00
73828;PMS7003;62176;48.450;-4.466;2022-08-20T07:22:41;7.00;5.00;3.00
73828;PMS7003;62176;48.450;-4.466;2022-08-20T07:25:08;7.75;5.00;4.00
73828;PMS7003;62176;48.450;-4.466;2022-08-20T07:27:36;9.00;6.00;4.00
73828;PMS7003;62176;48.450;-4.466;2022-08-20T07:30:07;7.25;7.25;5.00
73828;PMS7003;62176;48.450;-4.466;2022-08-20T07:32:54;5.25;5.25;4.00
73828;PMS7003;62176;48.450;-4.466;2022-08-20T07:35:19;11.00;6.50;5.00
73828;PMS7003;62176;48.450;-4.466;2022-08-20T07:37:46;5.25;4.25;3.25
73828;PMS7003;62176;48.450;-4.466;2022-08-20T07:40:18;6.00;4.25;3.00
73828;PMS7003;62176;48.450;-4.466;2022-08-20T07:43:02;7.50;6.00;3.75
73828;PMS7003;62176;48.450;-4.466;2022-08-20T07:45:28;10.00;8.00;4.50
73828;PMS7003;62176;48.450;-4.466;2022-08-20T07:47:54;8.25;6.00;4.00
73828;PMS7003;62176;48.450;-4.466;2022-08-20T07:50:30;7.25;6.00;4.00
73828;PMS7003;62176;48.450;-4.466;2022-08-20T07:52:56;9.25;4.75;3.00
73828;PMS7003;62176;48.450;-4.466;2022-08-20T07:55:24;5.50;5.25;3.00
73828;PMS7003;62176;48.450;-4.466;2022-08-20T07:57:50;5.50;4.25;2.50
73828;PMS7003;62176;48.450;-4.466;2022-08-20T08:00:16;9.75;5.25;3.50
73828;PMS7003;62176;48.450;-4.466;2022-08-20T08:02:44;6.50;4.75;3.50
73828;PMS7003;62176;48.450;-4.466;2022-08-20T08:05:10;7.00;5.50;4.00
73828;PMS7003;62176;48.450;-4.466;2022-08-20T08:07:36;4.75;3.50;2.75
73828;PMS7003;62176;48.450;-4.466;2022-08-20T08:10:04;6.00;4.25;3.00
73828;PMS7003;62176;48.450;-4.466;2022-08-20T08:12:34;8.50;4.00;2.50
73828;PMS7003;62176;48.450;-4.466;2022-08-20T08:15:05;4.25;4.00;3.00
73828;PMS7003;62176;48.450;-4.466;2022-08-20T08:17:36;4.75;3.75;2.25
73828;PMS7003;62176;48.450;-4.466;2022-08-20T08:20:03;6.00;3.75;2.75
73828;PMS7003;62176;48.450;-4.466;2022-08-20T08:22:30;6.75;5.00;3.00
73828;PMS7003;62176;48.450;-4.466;2022-08-20T08:24:57;6.50;4.75;3.00
73828;PMS7003;62176;48.450;-4.466;2022-08-20T08:27:26;9.25;5.00;3.50
73828;PMS7003;62176;48.450;-4.466;2022-08-20T08:29:58;6.00;5.00;3.75
73828;PMS7003;62176;48.450;-4.466;2022-08-20T08:32:25;2.25;2.25;2.00
73828;PMS7003;62176;48.450;-4.466;2022-08-20T08:34:51;7.75;4.00;3.75
73828;PMS7003;62176;48.450;-4.466;2022-08-20T08:37:16;6.00;4.25;3.00
73828;PMS7003;62176;48.450;-4.466;2022-08-20T08:39:42;6.00;4.00;2.50
73828;PMS7003;62176;48.450;-4.466;2022-08-20T08:45:09;6.25;5.00;4.00
73828;PMS7003;62176;48.450;-4.466;2022-08-20T08:47:39;3.25;3.25;2.25
73828;PMS7003;62176;48.450;-4.466;2022-08-20T08:50:06;6.50;4.00;2.75
73828;PMS7003;62176;48.450;-4.466;2022-08-20T08:52:40;5.75;4.00;2.75
73828;PMS7003;62176;48.450;-4.466;2022-08-20T08:55:09;4.50;3.00;2.75
73828;PMS7003;62176;48.450;-4.466;2022-08-20T08:57:39;3.50;3.50;3.00
73828;PMS7003;62176;48.450;-4.466;2022-08-20T09:00:09;5.50;3.50;2.00
73828;PMS7003;62176;48.450;-4.466;2022-08-20T09:02:39;5.25;4.00;2.50
73828;PMS7003;62176;48.450;-4.466;2022-08-20T09:05:17;6.75;3.50;2.25
73828;PMS7003;62176;48.450;-4.466;2022-08-20T09:07:47;5.75;3.00;1.00
73828;PMS7003;62176;48.450;-4.466;2022-08-20T09:10:15;4.25;4.00;3.00
73828;PMS7003;62176;48.450;-4.466;2022-08-20T09:12:41;11.00;4.00;2.50
73828;PMS7003;62176;48.450;-4.466;2022-08-20T09:15:08;7.75;5.00;3.00
73828;PMS7003;62176;48.450;-4.466;2022-08-20T09:17:34;5.50;2.50;1.50
73828;PMS7003;62176;48.450;-4.466;2022-08-20T09:19:59;1.50;1.00;0.00
73828;PMS7003;62176;48.450;-4.466;2022-08-20T09:22:25;6.50;2.75;2.00
73828;PMS7003;62176;48.450;-4.466;2022-08-20T09:24:50;4.00;3.00;2.00
73828;PMS7003;62176;48.450;-4.466;2022-08-20T09:27:16;5.00;1.25;1.25
73828;PMS7003;62176;48.450;-4.466;2022-08-20T09:29:42;4.00;3.75;2.00
73828;PMS7003;62176;48.450;-4.466;2022-08-20T09:32:10;6.25;3.00;3.00
73828;PMS7003;62176;48.450;-4.466;2022-08-20T09:34:41;3.00;3.00;2.00
73828;PMS7003;62176;48.450;-4.466;2022-08-20T09:37:09;5.50;4.00;2.00
73828;PMS7003;62176;48.450;-4.466;2022-08-20T09:39:35;2.00;2.00;1.50
73828;PMS7003;62176;48.450;-4.466;2022-08-20T09:42:21;3.50;3.50;2.25
73828;PMS7003;62176;48.450;-4.466;2022-08-20T09:44:49;2.25;2.25;2.00
73828;PMS7003;62176;48.450;-4.466;2022-08-20T09:47:14;3.75;3.50;2.75
73828;PMS7003;62176;48.450;-4.466;2022-08-20T09:49:41;6.00;4.00;3.00
73828;PMS7003;62176;48.450;-4.466;2022-08-20T09:52:08;2.75;2.75;2.00
73828;PMS7003;62176;48.450;-4.466;2022-08-20T09:54:35;5.50;3.00;3.00
73828;PMS7003;62176;48.450;-4.466;2022-08-20T09:57:05;3.50;2.25;1.75
73828;PMS7003;62176;48.450;-4.466;2022-08-20T09:59:33;5.75;3.00;2.25
73828;PMS7003;62176;48.450;-4.466;2022-08-20T10:02:00;4.25;2.75;2.00
73828;PMS7003;62176;48.450;-4.466;2022-08-20T10:04:26;6.00;4.25;3.25
73828;PMS7003;62176;48.450;-4.466;2022-08-20T10:06:51;3.50;3.50;1.50
73828;PMS7003;62176;48.450;-4.466;2022-08-20T10:09:17;1.75;1.75;1.50
73828;PMS7003;62176;48.450;-4.466;2022-08-20T10:11:42;4.75;3.00;1.50
73828;PMS7003;62176;48.450;-4.466;2022-08-20T10:14:08;2.25;2.25;1.50
73828;PMS7003;62176;48.450;-4.466;2022-08-20T10:16:34;6.00;4.75;3.00
73828;PMS7003;62176;48.450;-4.466;2022-08-20T10:19:00;1.50;1.50;1.00
73828;PMS7003;62176;48.450;-4.466;2022-08-20T10:21:26;4.75;2.50;1.75
73828;PMS7003;62176;48.450;-4.466;2022-08-20T10:23:51;3.50;1.75;1.25
73828;PMS7003;62176;48.450;-4.466;2022-08-20T10:26:16;2.75;1.75;1.50
73828;PMS7003;62176;48.450;-4.466;2022-08-20T10:28:42;8.25;3.25;1.75
73828;PMS7003;62176;48.450;-4.466;2022-08-20T10:31:08;4.25;2.00;1.50
73828;PMS7003;62176;48.450;-4.466;2022-08-20T10:33:35;4.75;2.00;1.25
73828;PMS7003;62176;48.450;-4.466;2022-08-20T10:36:05;6.50;2.50;1.50
73828;PMS7003;62176;48.450;-4.466;2022-08-20T10:38:34;8.75;4.50;2.25
73828;PMS7003;62176;48.450;-4.466;2022-08-20T10:41:00;2.00;2.00;2.00
73828;PMS7003;62176;48.450;-4.466;2022-08-20T10:43:25;4.50;2.50;1.75
73828;PMS7003;62176;48.450;-4.466;2022-08-20T10:45:52;4.00;2.50;1.75
73828;PMS7003;62176;48.450;-4.466;2022-08-20T10:48:18;3.25;2.50;2.00
73828;PMS7003;62176;48.450;-4.466;2022-08-20T10:50:43;3.00;3.00;2.50
73828;PMS7003;62176;48.450;-4.466;2022-08-20T10:53:09;7.50;6.50;2.00
73828;PMS7003;62176;48.450;-4.466;2022-08-20T10:55:34;2.75;1.00;1.00
73828;PMS7003;62176;48.450;-4.466;2022-08-20T10:58:00;1.75;1.75;0.75
73828;PMS7003;62176;48.450;-4.466;2022-08-20T11:00:28;6.25;3.00;2.00
73828;PMS7003;62176;48.450;-4.466;2022-08-20T11:02:53;4.75;2.25;1.50
73828;PMS7003;62176;48.450;-4.466;2022-08-20T11:05:19;2.25;2.25;1.75
73828;PMS7003;62176;48.450;-4.466;2022-08-20T11:07:44;4.75;2.75;2.00
73828;PMS7003;62176;48.450;-4.466;2022-08-20T11:10:10;1.75;0.75;0.75
73828;PMS7003;62176;48.450;-4.466;2022-08-20T11:12:36;2.00;1.50;1.00
73828;PMS7003;62176;48.450;-4.466;2022-08-20T11:15:01;5.25;2.75;1.75
73828;PMS7003;62176;48.450;-4.466;2022-08-20T11:17:29;6.75;2.00;1.00
73828;PMS7003;62176;48.450;-4.466;2022-08-20T11:19:56;2.75;1.00;1.00
73828;PMS7003;62176;48.450;-4.466;2022-08-20T11:22:23;4.00;2.25;1.00
73828;PMS7003;62176;48.450;-4.466;2022-08-20T11:24:48;1.50;1.25;0.75
73828;PMS7003;62176;48.450;-4.466;2022-08-20T11:27:19;2.00;2.00;1.00
73828;PMS7003;62176;48.450;-4.466;2022-08-20T11:29:47;4.00;1.00;1.00
73828;PMS7003;62176;48.450;-4.466;2022-08-20T11:32:13;3.25;2.00;1.00
73828;PMS7003;62176;48.450;-4.466;2022-08-20T11:34:38;1.00;1.00;1.00
73828;PMS7003;62176;48.450;-4.466;2022-08-20T11:37:04;4.75;2.75;1.50
73828;PMS7003;62176;48.450;-4.466;2022-08-20T11:39:29;2.00;2.00;1.00
73828;PMS7003;62176;48.450;-4.466;2022-08-20T11:41:55;3.25;2.00;1.00
73828;PMS7003;62176;48.450;-4.466;2022-08-20T11:44:20;2.00;2.00;1.00
73828;PMS7003;62176;48.450;-4.466;2022-08-20T11:46:46;2.00;2.00;1.25
73828;PMS7003;62176;48.450;-4.466;2022-08-20T11:49:11;1.00;1.00;1.00
73828;PMS7003;62176;48.450;-4.466;2022-08-20T11:51:37;2.00;2.00;1.00
73828;PMS7003;62176;48.450;-4.466;2022-08-20T11:54:03;3.25;1.00;1.00
73828;PMS7003;62176;48.450;-4.466;2022-08-20T11:56:29;3.25;3.25;1.50
73828;PMS7003;62176;48.450;-4.466;2022-08-20T11:58:55;1.50;0.25;0.00
73828;PMS7003;62176;48.450;-4.466;2022-08-20T12:01:20;1.50;0.75;0.00
73828;PMS7003;62176;48.450;-4.466;2022-08-20T12:03:46;2.75;2.00;1.00
73828;PMS7003;62176;48.450;-4.466;2022-08-20T12:06:11;2.00;2.00;1.75
73828;PMS7003;62176;48.450;-4.466;2022-08-20T12:08:36;2.25;1.00;1.00
73828;PMS7003;62176;48.450;-4.466;2022-08-20T12:11:02;3.75;2.00;2.00
73828;PMS7003;62176;48.450;-4.466;2022-08-20T12:13:29;4.00;2.00;1.00
73828;PMS7003;62176;48.450;-4.466;2022-08-20T12:15:56;2.00;2.00;1.00
73828;PMS7003;62176;48.450;-4.466;2022-08-20T12:18:22;1.25;1.00;1.00
73828;PMS7003;62176;48.450;-4.466;2022-08-20T12:20:47;1.50;1.50;1.00
73828;PMS7003;62176;48.450;-4.466;2022-08-20T12:23:13;2.00;2.00;2.00
73828;PMS7003;62176;48.450;-4.466;2022-08-20T12:25:39;4.50;1.25;0.75
73828;PMS7003;62176;48.450;-4.466;2022-08-20T12:28:04;2.50;2.00;1.75
73828;PMS7003;62176;48.450;-4.466;2022-08-20T12:30:30;2.75;2.75;2.00
73828;PMS7003;62176;48.450;-4.466;2022-08-20T12:32:57;3.50;1.00;0.75
73828;PMS7003;62176;48.450;-4.466;2022-08-20T12:35:23;4.00;1.00;1.00
73828;PMS7003;62176;48.450;-4.466;2022-08-20T12:37:48;2.00;2.00;2.00
73828;PMS7003;62176;48.450;-4.466;2022-08-20T12:40:16;1.75;1.50;1.00
73828;PMS7003;62176;48.450;-4.466;2022-08-20T12:42:43;1.50;1.50;1.00
73828;PMS7003;62176;48.450;-4.466;2022-08-20T12:45:09;3.00;2.00;1.50
73828;PMS7003;62176;48.450;-4.466;2022-08-20T12:47:36;1.00;1.00;1.00
73828;PMS7003;62176;48.450;-4.466;2022-08-20T12:50:08;2.00;2.00;1.25
73828;PMS7003;62176;48.450;-4.466;2022-08-20T12:52:39;2.00;1.00;0.50
73828;PMS7003;62176;48.450;-4.466;2022-08-20T12:55:06;4.00;3.00;2.00
73828;PMS7003;62176;48.450;-4.466;2022-08-20T12:57:34;2.25;2.00;2.00
73828;PMS7003;62176;48.450;-4.466;2022-08-20T13:00:07;2.50;2.50;2.00
73828;PMS7003;62176;48.450;-4.466;2022-08-20T13:02:35;2.50;1.00;0.75
73828;PMS7003;62176;48.450;-4.466;2022-08-20T13:05:02;2.25;1.00;1.00
73828;PMS7003;62176;48.450;-4.466;2022-08-20T13:07:29;3.00;2.50;1.75
73828;PMS7003;62176;48.450;-4.466;2022-08-20T13:09:54;2.50;2.00;1.00
73828;PMS7003;62176;48.450;-4.466;2022-08-20T13:12:20;4.50;2.00;2.00
73828;PMS7003;62176;48.450;-4.466;2022-08-20T13:14:45;4.25;1.00;1.00
73828;PMS7003;62176;48.450;-4.466;2022-08-20T13:17:11;1.75;1.75;1.50
73828;PMS7003;62176;48.450;-4.466;2022-08-20T13:19:36;1.50;1.50;1.00
73828;PMS7003;62176;48.450;-4.466;2022-08-20T13:22:03;2.75;1.25;1.00
73828;PMS7003;62176;48.450;-4.466;2022-08-20T13:24:29;3.25;1.50;1.00
73828;PMS7003;62176;48.450;-4.466;2022-08-20T13:27:02;1.75;1.75;1.75
73828;PMS7003;62176;48.450;-4.466;2022-08-20T13:29:31;3.25;0.25;0.00
73828;PMS7003;62176;48.450;-4.466;2022-08-20T13:31:57;4.25;2.75;2.00
73828;PMS7003;62176;48.450;-4.466;2022-08-20T13:34:22;3.00;1.25;1.25
73828;PMS7003;62176;48.450;-4.466;2022-08-20T13:36:47;2.50;2.00;2.00
73828;PMS7003;62176;48.450;-4.466;2022-08-20T13:39:13;3.00;2.25;1.75
73828;PMS7003;62176;48.450;-4.466;2022-08-20T13:41:38;2.50;1.00;1.00
73828;PMS7003;62176;48.450;-4.466;2022-08-20T13:44:04;1.75;1.25;1.00
73828;PMS7003;62176;48.450;-4.466;2022-08-20T13:46:29;2.50;1.00;1.00
73828;PMS7003;62176;48.450;-4.466;2022-08-20T13:48:55;1.75;1.00;1.00
73828;PMS7003;62176;48.450;-4.466;2022-08-20T13:51:20;2.75;2.75;2.00
73828;PMS7003;62176;48.450;-4.466;2022-08-20T13:53:46;2.00;2.00;2.00
73828;PMS7003;62176;48.450;-4.466;2022-08-20T13:56:11;2.00;2.00;2.00
73828;PMS7003;62176;48.450;-4.466;2022-08-20T13:58:36;2.50;2.50;2.00
73828;PMS7003;62176;48.450;-4.466;2022-08-20T14:01:02;3.75;2.00;1.00
73828;PMS7003;62176;48.450;-4.466;2022-08-20T14:03:28;2.50;2.00;2.00
73828;PMS7003;62176;48.450;-4.466;2022-08-20T14:05:53;1.00;1.00;1.00
73828;PMS7003;62176;48.450;-4.466;2022-08-20T14:08:20;3.00;1.00;1.00
73828;PMS7003;62176;48.450;-4.466;2022-08-20T14:10:47;4.25;1.50;1.50
73828;PMS7003;62176;48.450;-4.466;2022-08-20T14:13:14;4.25;1.25;1.25
73828;PMS7003;62176;48.450;-4.466;2022-08-20T14:15:40;8.50;3.25;1.75
73828;PMS7003;62176;48.450;-4.466;2022-08-20T14:18:06;1.75;1.75;1.00
73828;PMS7003;62176;48.450;-4.466;2022-08-20T14:20:32;3.00;1.50;1.00
73828;PMS7003;62176;48.450;-4.466;2022-08-20T14:22:59;2.00;1.25;1.00